sensor_id;sensor_type;location;lat;lon;timestamp;temperature;humidity
16392;DHT22;8305;-33.882;151.134;2023-02-03T00:01:33;25.70;99.90
16392;DHT22;8305;-33.882;151.134;2023-02-03T00:04:04;25.60;99.90
16392;DHT22;8305;-33.882;151.134;2023-02-03T00:06:38;25.50;99.90
16392;DHT22;8305;-33.882;151.134;2023-02-03T00:09:11;25.50;99.90
16392;DHT22;8305;-33.882;151.134;2023-02-03T00:11:42;25.50;99.90
16392;DHT22;8305;-33.882;151.134;2023-02-03T00:14:13;25.60;99.90
16392;DHT22;8305;-33.882;151.134;2023-02-03T00:16:44;25.60;99.90
16392;DHT22;8305;-33.882;151.134;2023-02-03T00:19:15;25.90;99.90
16392;DHT22;8305;-33.882;151.134;2023-02-03T00:21:46;26.10;99.90
16392;DHT22;8305;-33.882;151.134;2023-02-03T00:24:19;26.30;99.90
16392;DHT22;8305;-33.882;151.134;2023-02-03T00:26:50;26.40;99.90
16392;DHT22;8305;-33.882;151.134;2023-02-03T00:29:21;26.30;99.90
16392;DHT22;8305;-33.882;151.134;2023-02-03T00:31:53;26.30;99.90
16392;DHT22;8305;-33.882;151.134;2023-02-03T00:34:28;26.40;99.90
16392;DHT22;8305;-33.882;151.134;2023-02-03T00:36:59;26.50;99.90
16392;DHT22;8305;-33.882;151.134;2023-02-03T00:39:34;26.70;99.90
16392;DHT22;8305;-33.882;151.134;2023-02-03T00:42:06;26.70;99.90
16392;DHT22;8305;-33.882;151.134;2023-02-03T00:44:37;26.80;99.90
16392;DHT22;8305;-33.882;151.134;2023-02-03T00:47:07;26.90;99.90
16392;DHT22;8305;-33.882;151.134;2023-02-03T00:49:38;26.80;99.90
16392;DHT22;8305;-33.882;151.134;2023-02-03T00:52:09;27.00;99.90
16392;DHT22;8305;-33.882;151.134;2023-02-03T00:54:42;27.10;99.90
16392;DHT22;8305;-33.882;151.134;2023-02-03T00:57:13;27.20;99.90
16392;DHT22;8305;-33.882;151.134;2023-02-03T00:59:44;27.30;99.90
16392;DHT22;8305;-33.882;151.134;2023-02-03T01:02:15;27.40;99.90
16392;DHT22;8305;-33.882;151.134;2023-02-03T01:04:46;27.60;99.90
16392;DHT22;8305;-33.882;151.134;2023-02-03T01:07:18;27.70;99.90
16392;DHT22;8305;-33.882;151.134;2023-02-03T01:09:50;27.60;99.90
16392;DHT22;8305;-33.882;151.134;2023-02-03T01:12:21;27.60;99.90
16392;DHT22;8305;-33.882;151.134;2023-02-03T01:14:52;27.60;99.90
16392;DHT22;8305;-33.882;151.134;2023-02-03T01:17:23;27.60;99.90
16392;DHT22;8305;-33.882;151.134;2023-02-03T01:19:54;27.70;99.90
16392;DHT22;8305;-33.882;151.134;2023-02-03T01:22:27;27.80;99.90
16392;DHT22;8305;-33.882;151.134;2023-02-03T01:25:00;27.80;99.90
16392;DHT22;8305;-33.882;151.134;2023-02-03T01:27:32;28.00;99.90
16392;DHT22;8305;-33.882;151.134;2023-02-03T01:30:03;28.20;99.90
16392;DHT22;8305;-33.882;151.134;2023-02-03T01:32:34;28.30;99.90
16392;DHT22;8305;-33.882;151.134;2023-02-03T01:35:06;28.40;99.90
16392;DHT22;8305;-33.882;151.134;2023-02-03T01:37:36;28.40;99.90
16392;DHT22;8305;-33.882;151.134;2023-02-03T01:40:11;28.50;99.90
16392;DHT22;8305;-33.882;151.134;2023-02-03T01:42:42;28.70;99.90
16392;DHT22;8305;-33.882;151.134;2023-02-03T01:45:13;28.70;99.90
16392;DHT22;8305;-33.882;151.134;2023-02-03T01:47:47;28.70;99.90
16392;DHT22;8305;-33.882;151.134;2023-02-03T01:50:21;28.70;99.90
16392;DHT22;8305;-33.882;151.134;2023-02-03T01:52:56;28.70;99.90
16392;DHT22;8305;-33.882;151.134;2023-02-03T01:55:34;28.70;99.90
16392;DHT22;8305;-33.882;151.134;2023-02-03T01:58:07;28.70;99.90
16392;DHT22;8305;-33.882;151.134;2023-02-03T02:00:39;28.80;99.90
16392;DHT22;8305;-33.882;151.134;2023-02-03T02:03:10;28.80;99.90
16392;DHT22;8305;-33.882;151.134;2023-02-03T02:05:46;28.80;99.90
16392;DHT22;8305;-33.882;151.134;2023-02-03T02:08:19;28.70;99.90
16392;DHT22;8305;-33.882;151.134;2023-02-03T02:10:52;28.60;99.90
16392;DHT22;8305;-33.882;151.134;2023-02-03T02:13:24;28.70;99.90
16392;DHT22;8305;-33.882;151.134;2023-02-03T02:15:59;28.80;99.90
16392;DHT22;8305;-33.882;151.134;2023-02-03T02:18:41;29.00;99.90
16392;DHT22;8305;-33.882;151.134;2023-02-03T02:21:43;29.00;99.90
16392;DHT22;8305;-33.882;151.134;2023-02-03T02:27:58;29.20;99.90
16392;DHT22;8305;-33.882;151.134;2023-02-03T02:30:45;29.20;99.90
16392;DHT22;8305;-33.882;151.134;2023-02-03T02:33:32;29.40;99.90
16392;DHT22;8305;-33.882;151.134;2023-02-03T02:36:11;29.50;99.90
16392;DHT22;8305;-33.882;151.134;2023-02-03T02:38:52;29.40;99.90
16392;DHT22;8305;-33.882;151.134;2023-02-03T02:41:36;29.40;99.90
16392;DHT22;8305;-33.882;151.134;2023-02-03T02:44:11;29.20;99.90
16392;DHT22;8305;-33.882;151.134;2023-02-03T02:46:46;29.00;99.90
16392;DHT22;8305;-33.882;151.134;2023-02-03T02:49:22;28.90;99.90
16392;DHT22;8305;-33.882;151.134;2023-02-03T02:51:56;29.10;99.90
16392;DHT22;8305;-33.882;151.134;2023-02-03T02:54:31;29.20;99.90
16392;DHT22;8305;-33.882;151.134;2023-02-03T02:57:04;29.40;99.90
16392;DHT22;8305;-33.882;151.134;2023-02-03T02:59:36;29.60;99.90
16392;DHT22;8305;-33.882;151.134;2023-02-03T03:02:11;29.70;99.90
16392;DHT22;8305;-33.882;151.134;2023-02-03T03:04:45;29.70;99.90
16392;DHT22;8305;-33.882;151.134;2023-02-03T03:07:20;29.70;99.90
16392;DHT22;8305;-33.882;151.134;2023-02-03T03:09:54;29.60;99.90
16392;DHT22;8305;-33.882;151.134;2023-02-03T03:12:30;29.50;99.90
16392;DHT22;8305;-33.882;151.134;2023-02-03T03:15:02;29.60;99.90
16392;DHT22;8305;-33.882;151.134;2023-02-03T03:17:38;29.60;99.90
16392;DHT22;8305;-33.882;151.134;2023-02-03T03:20:17;29.60;99.90
16392;DHT22;8305;-33.882;151.134;2023-02-03T03:22:54;29.50;99.90
16392;DHT22;8305;-33.882;151.134;2023-02-03T03:25:33;29.60;99.90
16392;DHT22;8305;-33.882;151.134;2023-02-03T03:28:09;29.60;99.90
16392;DHT22;8305;-33.882;151.134;2023-02-03T03:30:42;29.60;99.90
16392;DHT22;8305;-33.882;151.134;2023-02-03T03:33:13;29.60;99.90
16392;DHT22;8305;-33.882;151.134;2023-02-03T03:35:48;29.70;99.90
16392;DHT22;8305;-33.882;151.134;2023-02-03T03:38:25;29.60;99.90
16392;DHT22;8305;-33.882;151.134;2023-02-03T03:41:03;29.70;99.90
16392;DHT22;8305;-33.882;151.134;2023-02-03T03:43:38;29.80;99.90
16392;DHT22;8305;-33.882;151.134;2023-02-03T03:46:13;29.70;99.90
16392;DHT22;8305;-33.882;151.134;2023-02-03T03:48:51;29.80;99.90
16392;DHT22;8305;-33.882;151.134;2023-02-03T03:51:27;29.90;99.90
16392;DHT22;8305;-33.882;151.134;2023-02-03T03:54:02;29.90;99.90
16392;DHT22;8305;-33.882;151.134;2023-02-03T03:56:37;29.90;99.90
16392;DHT22;8305;-33.882;151.134;2023-02-03T03:59:11;30.00;99.90
16392;DHT22;8305;-33.882;151.134;2023-02-03T04:01:44;30.10;99.90
16392;DHT22;8305;-33.882;151.134;2023-02-03T04:04:15;30.10;99.90
16392;DHT22;8305;-33.882;151.134;2023-02-03T04:06:51;30.20;99.90
16392;DHT22;8305;-33.882;151.134;2023-02-03T04:09:22;30.30;99.90
16392;DHT22;8305;-33.882;151.134;2023-02-03T04:11:53;30.30;99.90
16392;DHT22;8305;-33.882;151.134;2023-02-03T04:14:35;30.30;99.90
16392;DHT22;8305;-33.882;151.134;2023-02-03T04:17:07;30.40;99.90
16392;DHT22;8305;-33.882;151.134;2023-02-03T04:19:39;30.30;99.90
16392;DHT22;8305;-33.882;151.134;2023-02-03T04:22:11;30.00;99.90
16392;DHT22;8305;-33.882;151.134;2023-02-03T04:24:42;29.50;99.90
16392;DHT22;8305;-33.882;151.134;2023-02-03T04:27:13;28.90;99.90
16392;DHT22;8305;-33.882;151.134;2023-02-03T04:29:44;28.40;99.90
16392;DHT22;8305;-33.882;151.134;2023-02-03T04:32:17;27.90;99.90
16392;DHT22;8305;-33.882;151.134;2023-02-03T04:34:48;27.60;99.90
16392;DHT22;8305;-33.882;151.134;2023-02-03T04:37:21;27.30;99.90
16392;DHT22;8305;-33.882;151.134;2023-02-03T04:39:53;27.10;99.90
16392;DHT22;8305;-33.882;151.134;2023-02-03T04:42:24;27.10;99.90
16392;DHT22;8305;-33.882;151.134;2023-02-03T04:44:56;27.10;99.90
16392;DHT22;8305;-33.882;151.134;2023-02-03T04:47:27;26.90;99.90
16392;DHT22;8305;-33.882;151.134;2023-02-03T04:50:00;26.60;99.90
16392;DHT22;8305;-33.882;151.134;2023-02-03T04:52:33;26.30;99.90
16392;DHT22;8305;-33.882;151.134;2023-02-03T04:55:04;26.10;99.90
16392;DHT22;8305;-33.882;151.134;2023-02-03T04:57:35;25.90;99.90
16392;DHT22;8305;-33.882;151.134;2023-02-03T05:00:07;25.80;99.90
16392;DHT22;8305;-33.882;151.134;2023-02-03T05:02:38;25.80;99.90
16392;DHT22;8305;-33.882;151.134;2023-02-03T05:05:09;25.90;99.90
16392;DHT22;8305;-33.882;151.134;2023-02-03T05:07:42;26.00;99.90
16392;DHT22;8305;-33.882;151.134;2023-02-03T05:10:14;26.20;99.90
16392;DHT22;8305;-33.882;151.134;2023-02-03T05:12:45;26.30;99.90
16392;DHT22;8305;-33.882;151.134;2023-02-03T05:15:16;26.30;99.90
16392;DHT22;8305;-33.882;151.134;2023-02-03T05:17:47;26.30;99.90
16392;DHT22;8305;-33.882;151.134;2023-02-03T05:20:18;26.40;99.90
16392;DHT22;8305;-33.882;151.134;2023-02-03T05:22:51;26.50;99.90
16392;DHT22;8305;-33.882;151.134;2023-02-03T05:25:22;26.40;99.90
16392;DHT22;8305;-33.882;151.134;2023-02-03T05:27:53;26.30;99.90
16392;DHT22;8305;-33.882;151.134;2023-02-03T05:30:24;26.30;99.90
16392;DHT22;8305;-33.882;151.134;2023-02-03T05:32:55;26.40;99.90
16392;DHT22;8305;-33.882;151.134;2023-02-03T05:35:26;26.30;99.90
16392;DHT22;8305;-33.882;151.134;2023-02-03T05:37:59;26.30;99.90
16392;DHT22;8305;-33.882;151.134;2023-02-03T05:40:30;26.20;99.90
16392;DHT22;8305;-33.882;151.134;2023-02-03T05:43:22;26.10;99.90
16392;DHT22;8305;-33.882;151.134;2023-02-03T05:45:53;25.90;99.90
16392;DHT22;8305;-33.882;151.134;2023-02-03T05:48:24;25.90;99.90
16392;DHT22;8305;-33.882;151.134;2023-02-03T05:50:55;25.90;99.90
16392;DHT22;8305;-33.882;151.134;2023-02-03T05:53:28;25.90;99.90
16392;DHT22;8305;-33.882;151.134;2023-02-03T05:55:59;25.90;99.90
16392;DHT22;8305;-33.882;151.134;2023-02-03T05:58:30;26.00;99.90
16392;DHT22;8305;-33.882;151.134;2023-02-03T06:01:01;26.00;99.90
16392;DHT22;8305;-33.882;151.134;2023-02-03T06:03:32;26.00;99.90
16392;DHT22;8305;-33.882;151.134;2023-02-03T06:06:02;25.90;99.90
16392;DHT22;8305;-33.882;151.134;2023-02-03T06:08:35;25.90;99.90
16392;DHT22;8305;-33.882;151.134;2023-02-03T06:11:06;25.70;99.90
16392;DHT22;8305;-33.882;151.134;2023-02-03T06:13:37;25.70;99.90
16392;DHT22;8305;-33.882;151.134;2023-02-03T06:16:08;25.60;99.90
16392;DHT22;8305;-33.882;151.134;2023-02-03T06:18:39;25.70;99.90
16392;DHT22;8305;-33.882;151.134;2023-02-03T06:21:10;25.50;99.90
16392;DHT22;8305;-33.882;151.134;2023-02-03T06:23:43;25.50;99.90
16392;DHT22;8305;-33.882;151.134;2023-02-03T06:26:14;25.50;99.90
16392;DHT22;8305;-33.882;151.134;2023-02-03T06:28:46;25.40;99.90
16392;DHT22;8305;-33.882;151.134;2023-02-03T06:31:20;25.40;99.90
16392;DHT22;8305;-33.882;151.134;2023-02-03T06:33:51;25.40;99.90
16392;DHT22;8305;-33.882;151.134;2023-02-03T06:36:24;25.40;99.90
16392;DHT22;8305;-33.882;151.134;2023-02-03T06:38:57;25.30;99.90
16392;DHT22;8305;-33.882;151.134;2023-02-03T06:41:29;25.10;99.90
16392;DHT22;8305;-33.882;151.134;2023-02-03T06:43:59;25.10;99.90
16392;DHT22;8305;-33.882;151.134;2023-02-03T06:46:30;25.10;99.90
16392;DHT22;8305;-33.882;151.134;2023-02-03T06:49:01;25.00;99.90
16392;DHT22;8305;-33.882;151.134;2023-02-03T06:51:32;25.00;99.90
16392;DHT22;8305;-33.882;151.134;2023-02-03T06:54:05;24.90;99.90
16392;DHT22;8305;-33.882;151.134;2023-02-03T06:56:36;24.90;99.90
16392;DHT22;8305;-33.882;151.134;2023-02-03T06:59:07;24.80;99.90
16392;DHT22;8305;-33.882;151.134;2023-02-03T07:01:38;24.70;99.90
16392;DHT22;8305;-33.882;151.134;2023-02-03T07:04:09;24.60;99.90
16392;DHT22;8305;-33.882;151.134;2023-02-03T07:06:40;24.50;99.90
16392;DHT22;8305;-33.882;151.134;2023-02-03T07:09:13;24.50;99.90
16392;DHT22;8305;-33.882;151.134;2023-02-03T07:11:56;24.40;99.90
16392;DHT22;8305;-33.882;151.134;2023-02-03T07:14:28;24.30;99.90
16392;DHT22;8305;-33.882;151.134;2023-02-03T07:16:59;24.20;99.90
16392;DHT22;8305;-33.882;151.134;2023-02-03T07:19:30;24.10;99.90
16392;DHT22;8305;-33.882;151.134;2023-02-03T07:22:01;24.10;99.90
16392;DHT22;8305;-33.882;151.134;2023-02-03T07:24:34;24.00;99.90
16392;DHT22;8305;-33.882;151.134;2023-02-03T07:30:20;23.90;99.90
16392;DHT22;8305;-33.882;151.134;2023-02-03T07:32:52;23.90;99.90
16392;DHT22;8305;-33.882;151.134;2023-02-03T07:35:23;23.90;99.90
16392;DHT22;8305;-33.882;151.134;2023-02-03T07:37:54;23.90;99.90
16392;DHT22;8305;-33.882;151.134;2023-02-03T07:40:27;23.80;99.90
16392;DHT22;8305;-33.882;151.134;2023-02-03T07:42:58;23.80;99.90
16392;DHT22;8305;-33.882;151.134;2023-02-03T07:45:29;23.70;99.90
16392;DHT22;8305;-33.882;151.134;2023-02-03T07:48:00;23.70;99.90
16392;DHT22;8305;-33.882;151.134;2023-02-03T07:50:31;23.60;99.90
16392;DHT22;8305;-33.882;151.134;2023-02-03T07:53:02;23.60;99.90
16392;DHT22;8305;-33.882;151.134;2023-02-03T07:55:36;23.60;99.90
16392;DHT22;8305;-33.882;151.134;2023-02-03T07:58:08;23.70;99.90
16392;DHT22;8305;-33.882;151.134;2023-02-03T08:00:39;23.70;99.90
16392;DHT22;8305;-33.882;151.134;2023-02-03T08:03:10;23.70;99.90
16392;DHT22;8305;-33.882;151.134;2023-02-03T08:05:41;23.80;99.90
16392;DHT22;8305;-33.882;151.134;2023-02-03T08:08:12;23.80;99.90
16392;DHT22;8305;-33.882;151.134;2023-02-03T08:10:45;23.80;99.90
16392;DHT22;8305;-33.882;151.134;2023-02-03T08:13:16;23.70;99.90
16392;DHT22;8305;-33.882;151.134;2023-02-03T08:15:47;23.70;99.90
16392;DHT22;8305;-33.882;151.134;2023-02-03T08:18:19;23.70;99.90
16392;DHT22;8305;-33.882;151.134;2023-02-03T08:20:50;23.70;99.90
16392;DHT22;8305;-33.882;151.134;2023-02-03T08:23:22;23.60;99.90
16392;DHT22;8305;-33.882;151.134;2023-02-03T08:25:55;23.60;99.90
16392;DHT22;8305;-33.882;151.134;2023-02-03T08:28:26;23.60;99.90
16392;DHT22;8305;-33.882;151.134;2023-02-03T08:30:57;23.60;99.90
16392;DHT22;8305;-33.882;151.134;2023-02-03T08:33:28;23.50;99.90
16392;DHT22;8305;-33.882;151.134;2023-02-03T08:35:59;23.50;99.90
16392;DHT22;8305;-33.882;151.134;2023-02-03T08:38:30;23.50;99.90
16392;DHT22;8305;-33.882;151.134;2023-02-03T08:41:08;23.40;99.90
16392;DHT22;8305;-33.882;151.134;2023-02-03T08:43:40;23.40;99.90
16392;DHT22;8305;-33.882;151.134;2023-02-03T08:46:12;23.40;99.90
16392;DHT22;8305;-33.882;151.134;2023-02-03T08:48:43;23.30;99.90
16392;DHT22;8305;-33.882;151.134;2023-02-03T08:51:15;23.30;99.90
16392;DHT22;8305;-33.882;151.134;2023-02-03T08:53:46;23.20;99.90
16392;DHT22;8305;-33.882;151.134;2023-02-03T08:56:19;23.20;99.90
16392;DHT22;8305;-33.882;151.134;2023-02-03T08:58:51;23.20;99.90
16392;DHT22;8305;-33.882;151.134;2023-02-03T09:01:22;23.20;99.90
16392;DHT22;8305;-33.882;151.134;2023-02-03T09:03:53;23.10;99.90
16392;DHT22;8305;-33.882;151.134;2023-02-03T09:06:24;23.10;99.90
16392;DHT22;8305;-33.882;151.134;2023-02-03T09:08:57;23.10;99.90
16392;DHT22;8305;-33.882;151.134;2023-02-03T09:11:30;23.10;99.90
16392;DHT22;8305;-33.882;151.134;2023-02-03T09:14:01;23.10;99.90
16392;DHT22;8305;-33.882;151.134;2023-02-03T09:16:32;23.00;99.90
16392;DHT22;8305;-33.882;151.134;2023-02-03T09:19:03;23.00;99.90
16392;DHT22;8305;-33.882;151.134;2023-02-03T09:21:34;23.00;99.90
16392;DHT22;8305;-33.882;151.134;2023-02-03T09:24:05;22.90;99.90
16392;DHT22;8305;-33.882;151.134;2023-02-03T09:26:38;22.90;99.90
16392;DHT22;8305;-33.882;151.134;2023-02-03T09:29:09;23.00;99.90
16392;DHT22;8305;-33.882;151.134;2023-02-03T09:31:40;22.90;99.90
16392;DHT22;8305;-33.882;151.134;2023-02-03T09:34:13;22.90;99.90
16392;DHT22;8305;-33.882;151.134;2023-02-03T09:36:44;22.90;99.90
16392;DHT22;8305;-33.882;151.134;2023-02-03T09:39:15;22.90;99.90
16392;DHT22;8305;-33.882;151.134;2023-02-03T09:42:09;22.80;99.90
16392;DHT22;8305;-33.882;151.134;2023-02-03T09:44:50;22.90;99.90
16392;DHT22;8305;-33.882;151.134;2023-02-03T09:47:26;22.80;99.90
16392;DHT22;8305;-33.882;151.134;2023-02-03T09:49:59;22.90;99.90
16392;DHT22;8305;-33.882;151.134;2023-02-03T09:52:33;22.80;99.90
16392;DHT22;8305;-33.882;151.134;2023-02-03T09:55:10;22.80;99.90
16392;DHT22;8305;-33.882;151.134;2023-02-03T09:57:49;22.80;99.90
16392;DHT22;8305;-33.882;151.134;2023-02-03T10:00:26;22.80;99.90
16392;DHT22;8305;-33.882;151.134;2023-02-03T10:03:02;22.80;99.90
16392;DHT22;8305;-33.882;151.134;2023-02-03T10:08:58;22.80;99.90
16392;DHT22;8305;-33.882;151.134;2023-02-03T10:11:43;22.80;99.90
16392;DHT22;8305;-33.882;151.134;2023-02-03T10:14:34;22.80;99.90
16392;DHT22;8305;-33.882;151.134;2023-02-03T10:17:23;22.80;99.90
16392;DHT22;8305;-33.882;151.134;2023-02-03T10:20:01;22.80;99.90
16392;DHT22;8305;-33.882;151.134;2023-02-03T10:22:37;22.80;99.90
16392;DHT22;8305;-33.882;151.134;2023-02-03T10:25:16;22.80;99.90
16392;DHT22;8305;-33.882;151.134;2023-02-03T10:27:52;22.80;99.90
16392;DHT22;8305;-33.882;151.134;2023-02-03T10:30:28;22.80;99.90
16392;DHT22;8305;-33.882;151.134;2023-02-03T10:33:08;22.80;99.90
16392;DHT22;8305;-33.882;151.134;2023-02-03T10:35:45;22.80;99.90
16392;DHT22;8305;-33.882;151.134;2023-02-03T10:38:30;22.80;99.90
16392;DHT22;8305;-33.882;151.134;2023-02-03T10:41:05;22.80;99.90
16392;DHT22;8305;-33.882;151.134;2023-02-03T10:43:36;22.80;99.90
16392;DHT22;8305;-33.882;151.134;2023-02-03T10:46:27;22.90;99.90
16392;DHT22;8305;-33.882;151.134;2023-02-03T10:48:59;22.90;99.90
16392;DHT22;8305;-33.882;151.134;2023-02-03T10:51:33;22.90;99.90
16392;DHT22;8305;-33.882;151.134;2023-02-03T10:54:07;22.90;99.90
16392;DHT22;8305;-33.882;151.134;2023-02-03T10:57:01;22.90;99.90
16392;DHT22;8305;-33.882;151.134;2023-02-03T10:59:34;22.90;99.90
16392;DHT22;8305;-33.882;151.134;2023-02-03T11:02:22;22.90;99.90
16392;DHT22;8305;-33.882;151.134;2023-02-03T11:05:08;22.90;99.90
16392;DHT22;8305;-33.882;151.134;2023-02-03T11:07:39;22.80;99.90
16392;DHT22;8305;-33.882;151.134;2023-02-03T11:10:31;22.80;99.90
16392;DHT22;8305;-33.882;151.134;2023-02-03T11:13:20;22.80;99.90
16392;DHT22;8305;-33.882;151.134;2023-02-03T11:15:57;22.80;99.90
16392;DHT22;8305;-33.882;151.134;2023-02-03T11:18:50;22.80;99.90
16392;DHT22;8305;-33.882;151.134;2023-02-03T11:21:22;22.80;99.90
16392;DHT22;8305;-33.882;151.134;2023-02-03T11:24:02;22.70;99.90
16392;DHT22;8305;-33.882;151.134;2023-02-03T11:26:36;22.70;99.90
16392;DHT22;8305;-33.882;151.134;2023-02-03T11:29:16;22.80;99.90
16392;DHT22;8305;-33.882;151.134;2023-02-03T11:31:50;22.80;99.90
16392;DHT22;8305;-33.882;151.134;2023-02-03T11:34:31;22.80;99.90
16392;DHT22;8305;-33.882;151.134;2023-02-03T11:37:28;22.80;99.90
16392;DHT22;8305;-33.882;151.134;2023-02-03T11:43:13;22.80;99.90
16392;DHT22;8305;-33.882;151.134;2023-02-03T11:45:46;22.80;99.90
16392;DHT22;8305;-33.882;151.134;2023-02-03T11:48:27;22.80;99.90
16392;DHT22;8305;-33.882;151.134;2023-02-03T11:51:08;22.80;99.90
16392;DHT22;8305;-33.882;151.134;2023-02-03T11:53:54;22.80;99.90
16392;DHT22;8305;-33.882;151.134;2023-02-03T11:56:48;22.80;99.90
16392;DHT22;8305;-33.882;151.134;2023-02-03T11:59:35;22.70;99.90
16392;DHT22;8305;-33.882;151.134;2023-02-03T12:02:32;22.80;99.90
16392;DHT22;8305;-33.882;151.134;2023-02-03T12:05:22;22.70;99.90
16392;DHT22;8305;-33.882;151.134;2023-02-03T12:08:12;22.70;99.90
16392;DHT22;8305;-33.882;151.134;2023-02-03T12:10:56;22.80;99.90
16392;DHT22;8305;-33.882;151.134;2023-02-03T12:13:51;22.80;99.90
16392;DHT22;8305;-33.882;151.134;2023-02-03T12:19:47;23.00;99.90
16392;DHT22;8305;-33.882;151.134;2023-02-03T12:22:30;23.00;99.90
16392;DHT22;8305;-33.882;151.134;2023-02-03T12:25:20;23.00;99.90
16392;DHT22;8305;-33.882;151.134;2023-02-03T12:27:59;23.10;99.90
16392;DHT22;8305;-33.882;151.134;2023-02-03T12:30:37;23.10;99.90
16392;DHT22;8305;-33.882;151.134;2023-02-03T12:33:17;23.10;99.90
16392;DHT22;8305;-33.882;151.134;2023-02-03T12:35:51;23.10;99.90
16392;DHT22;8305;-33.882;151.134;2023-02-03T12:38:28;23.10;99.90
16392;DHT22;8305;-33.882;151.134;2023-02-03T12:41:07;23.20;99.90
16392;DHT22;8305;-33.882;151.134;2023-02-03T12:43:43;23.10;99.90
16392;DHT22;8305;-33.882;151.134;2023-02-03T12:46:18;23.10;99.90
16392;DHT22;8305;-33.882;151.134;2023-02-03T12:48:55;23.10;99.90
16392;DHT22;8305;-33.882;151.134;2023-02-03T12:51:33;23.10;99.90
16392;DHT22;8305;-33.882;151.134;2023-02-03T12:54:22;23.10;99.90
16392;DHT22;8305;-33.882;151.134;2023-02-03T12:57:03;23.10;99.90
16392;DHT22;8305;-33.882;151.134;2023-02-03T12:59:39;23.10;99.90
16392;DHT22;8305;-33.882;151.134;2023-02-03T13:02:15;23.00;99.90
16392;DHT22;8305;-33.882;151.134;2023-02-03T13:04:51;23.00;99.90
16392;DHT22;8305;-33.882;151.134;2023-02-03T13:07:26;23.00;99.90
16392;DHT22;8305;-33.882;151.134;2023-02-03T13:10:03;23.00;99.90
16392;DHT22;8305;-33.882;151.134;2023-02-03T13:12:40;23.00;99.90
16392;DHT22;8305;-33.882;151.134;2023-02-03T13:15:21;23.00;99.90
16392;DHT22;8305;-33.882;151.134;2023-02-03T13:17:57;22.90;99.90
16392;DHT22;8305;-33.882;151.134;2023-02-03T13:20:30;22.90;99.90
16392;DHT22;8305;-33.882;151.134;2023-02-03T13:23:09;22.80;99.90
16392;DHT22;8305;-33.882;151.134;2023-02-03T13:25:51;22.70;99.90
16392;DHT22;8305;-33.882;151.134;2023-02-03T13:28:38;22.70;99.90
16392;DHT22;8305;-33.882;151.134;2023-02-03T13:31:30;22.60;99.90
16392;DHT22;8305;-33.882;151.134;2023-02-03T13:34:23;22.60;99.90
16392;DHT22;8305;-33.882;151.134;2023-02-03T13:37:30;22.50;99.90
16392;DHT22;8305;-33.882;151.134;2023-02-03T13:40:19;22.50;99.90
16392;DHT22;8305;-33.882;151.134;2023-02-03T13:42:58;22.50;99.90
16392;DHT22;8305;-33.882;151.134;2023-02-03T13:45:39;22.40;99.90
16392;DHT22;8305;-33.882;151.134;2023-02-03T13:48:14;22.40;99.90
16392;DHT22;8305;-33.882;151.134;2023-02-03T13:50:46;22.40;99.90
16392;DHT22;8305;-33.882;151.134;2023-02-03T13:53:20;22.40;99.90
16392;DHT22;8305;-33.882;151.134;2023-02-03T13:55:56;22.30;99.90
16392;DHT22;8305;-33.882;151.134;2023-02-03T13:58:28;22.30;99.90
16392;DHT22;8305;-33.882;151.134;2023-02-03T14:01:28;22.20;99.90
16392;DHT22;8305;-33.882;151.134;2023-02-03T14:04:00;22.20;99.90
16392;DHT22;8305;-33.882;151.134;2023-02-03T14:06:54;22.20;99.90
16392;DHT22;8305;-33.882;151.134;2023-02-03T14:09:46;22.20;99.90
16392;DHT22;8305;-33.882;151.134;2023-02-03T14:12:30;22.10;99.90
16392;DHT22;8305;-33.882;151.134;2023-02-03T14:15:18;22.10;99.90
16392;DHT22;8305;-33.882;151.134;2023-02-03T14:18:17;22.10;99.90
16392;DHT22;8305;-33.882;151.134;2023-02-03T14:21:10;22.10;99.90
16392;DHT22;8305;-33.882;151.134;2023-02-03T14:26:39;22.00;99.90
16392;DHT22;8305;-33.882;151.134;2023-02-03T14:29:25;22.00;99.90
16392;DHT22;8305;-33.882;151.134;2023-02-03T14:32:00;22.00;99.90
16392;DHT22;8305;-33.882;151.134;2023-02-03T14:34:36;21.90;99.90
16392;DHT22;8305;-33.882;151.134;2023-02-03T14:37:19;21.90;99.90
16392;DHT22;8305;-33.882;151.134;2023-02-03T14:40:16;21.90;99.90
16392;DHT22;8305;-33.882;151.134;2023-02-03T14:43:13;21.90;99.90
16392;DHT22;8305;-33.882;151.134;2023-02-03T14:49:10;21.90;99.90
16392;DHT22;8305;-33.882;151.134;2023-02-03T14:51:59;21.80;99.90
16392;DHT22;8305;-33.882;151.134;2023-02-03T14:54:50;21.80;99.90
16392;DHT22;8305;-33.882;151.134;2023-02-03T14:57:33;21.80;99.90
16392;DHT22;8305;-33.882;151.134;2023-02-03T15:00:07;21.70;99.90
16392;DHT22;8305;-33.882;151.134;2023-02-03T15:03:18;21.70;99.90
16392;DHT22;8305;-33.882;151.134;2023-02-03T15:05:52;21.70;99.90
16392;DHT22;8305;-33.882;151.134;2023-02-03T15:08:54;21.70;99.90
16392;DHT22;8305;-33.882;151.134;2023-02-03T15:11:29;21.70;99.90
16392;DHT22;8305;-33.882;151.134;2023-02-03T15:14:19;21.70;99.90
16392;DHT22;8305;-33.882;151.134;2023-02-03T15:16:55;21.70;99.90
16392;DHT22;8305;-33.882;151.134;2023-02-03T15:19:30;21.70;99.90
16392;DHT22;8305;-33.882;151.134;2023-02-03T15:22:01;21.70;99.90
16392;DHT22;8305;-33.882;151.134;2023-02-03T15:24:38;21.70;99.90
16392;DHT22;8305;-33.882;151.134;2023-02-03T15:27:21;21.60;99.90
16392;DHT22;8305;-33.882;151.134;2023-02-03T15:30:15;21.50;99.90
16392;DHT22;8305;-33.882;151.134;2023-02-03T15:32:52;21.50;99.90
16392;DHT22;8305;-33.882;151.134;2023-02-03T15:35:30;21.50;99.90
16392;DHT22;8305;-33.882;151.134;2023-02-03T15:38:04;21.40;99.90
16392;DHT22;8305;-33.882;151.134;2023-02-03T15:40:44;21.40;99.90
16392;DHT22;8305;-33.882;151.134;2023-02-03T15:43:19;21.30;99.90
16392;DHT22;8305;-33.882;151.134;2023-02-03T15:45:57;21.30;99.90
16392;DHT22;8305;-33.882;151.134;2023-02-03T15:48:34;21.30;99.90
16392;DHT22;8305;-33.882;151.134;2023-02-03T15:51:10;21.20;99.90
16392;DHT22;8305;-33.882;151.134;2023-02-03T15:53:53;21.20;99.90
16392;DHT22;8305;-33.882;151.134;2023-02-03T15:56:32;21.10;99.90
16392;DHT22;8305;-33.882;151.134;2023-02-03T15:59:05;21.10;99.90
16392;DHT22;8305;-33.882;151.134;2023-02-03T16:01:48;21.10;99.90
16392;DHT22;8305;-33.882;151.134;2023-02-03T16:04:19;21.00;99.90
16392;DHT22;8305;-33.882;151.134;2023-02-03T16:06:52;21.00;99.90
16392;DHT22;8305;-33.882;151.134;2023-02-03T16:09:30;21.00;99.90
16392;DHT22;8305;-33.882;151.134;2023-02-03T16:12:17;21.00;99.90
16392;DHT22;8305;-33.882;151.134;2023-02-03T16:14:52;21.00;99.90
16392;DHT22;8305;-33.882;151.134;2023-02-03T16:17:27;21.00;99.90
16392;DHT22;8305;-33.882;151.134;2023-02-03T16:20:24;21.00;99.90